首页
METAR-TAF:

METAR-TAF

机场 :

布拉格瓦茨拉夫·哈維爾國際機場

布拉格, 捷克共和国

纬度: 50-06N, 经度: 014-15E, 海拔: 365米

当前天气观测

该预报发布于27分钟前的07:00 UTC
风速6节,风向东北
温度 -6°C
湿度 93%
气压 1006 hPa
能見度: 5000
散云层高于1000英尺
阴天层高于2300英尺
小雪, 轻雾

METAR: LKPR 240700Z 04006KT 5000 -SN BR SCT010 OVC023 M06/M07 Q1006 R24/29//95 R30/410595 NOSIG

时间: 08:27 (07:27 UTC)

预报

该预报发布于2小时和27分钟前的05:00 UTC
预报有效从24日的 06点(UTC)到 25日的 12点(UTC)
风速6节,风向东北
能見度: 8000
多云层高于2300英尺
几率 30% :
短暂存在
从 24日的 06点(UTC)到 25日的 12点(UTC)
能見度: 4000
多云层高于1300英尺
小雪, 轻雾
成为
从 24日的 16点(UTC)到 24日的 18点(UTC)
风速2节,风向多变
成为
从 25日的 00点(UTC)到 25日的 02点(UTC)
风速6节,风向西转西北

TAF: LKPR 240500Z 2406/2512 04006KT 8000 BKN023 PROB30 TEMPO 2406/2512 4000 -SN BR BKN013 BECMG 2416/2418 VRB02KT BECMG 2500/2502 30006KT

超过4000个机场的气象观测和天气预报(METAR&TAF报告)。

可查询的气象台以黄色和红色小点在地图上表示。

将鼠标移到小点上方,可查看气象台名称。

然后点击查看天气观测和预报。

如需切换地图:点击带黑十字的绿色按钮放大地图;点击带横线的绿色按钮缩小地图;或者点击绿色箭头查看邻近地区的地图。


METAR-TAF: